Time;durP1;ratioP1;P1;durP2;ratioP2;P2;SDS_P1;SDS_P2;PMS_P1;PMS_P2;Temp;Humidity;BMP_temperature;BMP_pressure;BME280_temperature;BME280_humidity;BME280_pressure;Samples;Min_cycle;Max_cycle;Signal;HPM_P1;HPM_P2
2022/03/13 00:01:01;;;;;;;1.23;0.90;;;;;;;22.01;26.27;101480.03;10536712;28;20040;-76
2022/03/13 00:06:03;;;;;;;4.50;2.70;;;;;;;22.07;26.13;101480.00;10539777;28;20215;-76
2022/03/13 00:11:15;;;;;;;7.63;3.22;;;;;;;22.25;25.84;101480.63;10519860;28;20052;-77
2022/03/13 00:16:18;;;;;;;0.57;0.47;;;;;;;21.72;26.56;101481.28;10520386;28;20522;-77
2022/03/13 00:21:20;;;;;;;11.07;4.60;;;;;;;20.77;28.20;101487.34;10537597;28;20039;-77
2022/03/13 00:26:22;;;;;;;7.10;4.65;;;;;;;21.01;27.33;101481.94;10536771;28;20028;-77
2022/03/13 00:31:24;;;;;;;12.77;6.75;;;;;;;19.32;30.25;101495.75;10515500;28;20054;-77
2022/03/13 00:36:26;;;;;;;14.55;7.55;;;;;;;20.37;29.13;101482.34;10528631;28;20056;-77
2022/03/13 00:41:27;;;;;;;9.82;4.60;;;;;;;19.97;29.79;101488.66;10535977;28;20123;-76
2022/03/13 00:46:29;;;;;;;11.05;5.38;;;;;;;20.40;29.15;101478.84;10534543;28;20131;-76
2022/03/13 00:51:33;;;;;;;7.35;4.22;;;;;;;20.72;28.67;101475.16;10517297;28;20056;-76
2022/03/13 00:56:35;;;;;;;15.48;6.95;;;;;;;19.70;30.15;101486.06;10536748;28;20048;-76
2022/03/13 01:01:36;;;;;;;10.38;6.05;;;;;;;19.46;29.56;101477.44;10517194;28;20060;-76
2022/03/13 01:06:40;;;;;;;5.43;2.97;;;;;;;20.07;29.08;101467.66;10536267;28;20144;-76
2022/03/13 01:11:42;;;;;;;10.07;5.55;;;;;;;20.24;28.92;101465.84;10501027;28;20121;-77
2022/03/13 01:16:44;;;;;;;7.15;4.18;;;;;;;19.91;29.13;101465.16;10535174;28;20067;-76
2022/03/13 01:21:46;;;;;;;16.40;7.10;;;;;;;20.31;28.70;101457.97;10517351;28;20485;-76
2022/03/13 01:27:00;;;;;;;7.32;3.83;;;;;;;21.30;26.21;101446.75;10516766;28;20213;-76
2022/03/13 01:32:02;;;;;;;2.67;1.33;;;;;;;22.24;25.79;101443.03;10534697;28;20048;-76
2022/03/13 01:37:08;;;;;;;5.78;2.92;;;;;;;20.84;26.68;101443.66;10535482;28;20146;-76
2022/03/13 01:42:10;;;;;;;19.27;8.27;;;;;;;20.35;27.81;101438.75;10534807;28;20047;-77
2022/03/13 01:47:12;;;;;;;15.60;5.80;;;;;;;20.38;27.96;101423.91;10534405;28;20509;-77
2022/03/13 01:52:16;;;;;;;4.72;2.65;;;;;;;21.27;26.25;101415.31;10515759;28;20044;-77
2022/03/13 01:57:19;;;;;;;0.52;0.52;;;;;;;22.87;25.09;101406.19;10533952;28;20054;-77
2022/03/13 02:02:25;;;;;;;8.13;3.83;;;;;;;21.37;25.87;101406.47;10533405;28;20077;-77
2022/03/13 02:07:28;;;;;;;1.42;1.33;;;;;;;21.30;26.45;101404.81;10516301;28;20241;-77
2022/03/13 02:12:30;;;;;;;9.55;4.97;;;;;;;20.86;27.17;101394.78;10532926;28;20139;-76
2022/03/13 02:17:35;;;;;;;21.23;7.47;;;;;;;19.99;27.93;101394.50;10515488;28;20143;-77
2022/03/13 02:22:36;;;;;;;12.60;6.35;;;;;;;20.25;27.16;101386.50;10514777;28;20700;-76
2022/03/13 02:27:38;;;;;;;16.17;4.88;;;;;;;20.73;26.65;101380.91;10526106;28;20044;-77
2022/03/13 02:32:40;;;;;;;2.45;1.23;;;;;;;21.98;24.96;101377.78;10532843;28;20490;-77
2022/03/13 02:37:42;;;;;;;3.78;2.20;;;;;;;21.65;25.04;101372.97;10532913;28;20072;-77
2022/03/13 02:42:49;;;;;;;5.53;1.77;;;;;;;21.41;25.48;101371.47;10532879;28;20389;-76
2022/03/13 02:47:51;;;;;;;6.88;3.53;;;;;;;20.42;26.15;101377.66;10529456;28;20040;-76
2022/03/13 02:52:53;;;;;;;1.50;1.40;;;;;;;21.42;25.65;101367.97;10533666;28;20039;-77
2022/03/13 02:57:55;;;;;;;9.27;4.00;;;;;;;20.56;26.18;101374.91;10533531;28;20040;-77
2022/03/13 03:02:56;;;;;;;6.55;1.85;;;;;;;21.32;25.27;101361.13;10532541;28;20067;-77
2022/03/13 03:07:58;;;;;;;0.32;0.32;;;;;;;21.59;24.79;101359.06;10533726;28;20044;-77
2022/03/13 03:13:00;;;;;;;7.00;2.97;;;;;;;20.35;26.11;101381.19;10537130;28;20047;-77
2022/03/13 03:18:06;;;;;;;2.55;1.45;;;;;;;21.62;24.61;101365.16;10522139;28;20047;-77
2022/03/13 03:23:08;;;;;;;1.85;1.42;;;;;;;21.58;24.24;101367.81;10539506;28;20042;-76
2022/03/13 03:28:10;;;;;;;0.20;0.20;;;;;;;21.91;23.48;101370.91;10520890;28;20043;-76
2022/03/13 03:33:11;;;;;;;1.35;0.68;;;;;;;20.88;24.64;101381.66;10520816;28;20079;-76
2022/03/13 03:38:14;;;;;;;0.85;0.82;;;;;;;21.66;23.53;101366.84;10539313;28;20119;-76
2022/03/13 03:43:15;;;;;;;2.75;1.10;;;;;;;21.52;23.50;101366.13;10538143;28;20040;-76
2022/03/13 03:48:20;;;;;;;0.03;0.03;;;;;;;21.14;23.95;101363.06;10539232;28;20044;-76
2022/03/13 03:53:21;;;;;;;0.20;0.20;;;;;;;23.24;21.62;101355.59;10538269;28;20059;-76
2022/03/13 03:58:23;;;;;;;0.75;0.75;;;;;;;21.82;22.83;101367.50;10538298;28;20072;-76
2022/03/13 04:03:27;;;;;;;0.10;0.10;;;;;;;21.92;22.92;101362.16;10537907;28;20039;-76
2022/03/13 04:08:29;;;;;;;1.27;0.82;;;;;;;21.62;23.37;101364.28;10538088;28;20388;-76
2022/03/13 04:13:33;;;;;;;0.20;0.20;;;;;;;21.98;22.95;101354.19;10519020;28;20099;-76
2022/03/13 04:18:36;;;;;;;1.23;0.60;;;;;;;21.69;22.84;101353.69;10537966;28;20048;-75
2022/03/13 04:23:37;;;;;;;0.00;0.00;;;;;;;22.07;22.56;101350.53;10536137;28;20040;-76
2022/03/13 04:28:39;;;;;;;0.00;0.00;;;;;;;22.11;22.65;101347.84;10519117;28;20079;-76
2022/03/13 04:33:41;;;;;;;0.30;0.30;;;;;;;22.04;22.99;101346.22;10518428;28;20072;-76
2022/03/13 04:38:42;;;;;;;0.13;0.13;;;;;;;20.78;24.15;101349.47;10536718;28;20126;-76
2022/03/13 04:43:44;;;;;;;0.20;0.13;;;;;;;21.22;23.93;101348.13;10518655;28;20097;-75
2022/03/13 04:48:49;;;;;;;1.05;0.65;;;;;;;20.82;24.02;101345.06;10536430;28;20073;-75
2022/03/13 04:53:51;;;;;;;0.08;0.05;;;;;;;20.85;24.13;101356.38;10536034;28;20529;-75
2022/03/13 04:58:52;;;;;;;0.00;0.00;;;;;;;20.68;24.19;101343.41;10518325;28;20052;-76
2022/03/13 05:03:54;;;;;;;0.30;0.30;;;;;;;19.95;24.56;101351.81;10535055;28;20364;-76
2022/03/13 05:08:56;;;;;;;1.25;0.73;;;;;;;19.65;24.93;101348.44;10535736;28;20127;-81
2022/03/13 05:13:57;;;;;;;1.30;0.55;;;;;;;19.40;24.85;101354.66;10534920;28;20058;-80
2022/03/13 05:18:59;;;;;;;5.18;1.65;;;;;;;18.45;25.49;101353.88;10500494;28;20458;-80
2022/03/13 05:24:01;;;;;;;1.88;0.73;;;;;;;18.68;25.17;101359.97;10534894;28;20123;-81
2022/03/13 05:29:02;;;;;;;5.63;1.77;;;;;;;18.39;25.21;101366.06;10516787;28;20386;-81
2022/03/13 05:34:07;;;;;;;9.52;3.75;;;;;;;17.73;26.50;101378.91;10534126;28;20048;-81
2022/03/13 05:39:09;;;;;;;1.15;0.60;;;;;;;18.64;25.63;101376.53;10533139;28;20074;-81
2022/03/13 05:44:12;;;;;;;0.50;0.50;;;;;;;19.15;24.22;101378.22;10516507;28;20452;-80
2022/03/13 05:49:14;;;;;;;0.20;0.20;;;;;;;20.57;22.44;101356.59;10534144;28;20052;-80
2022/03/13 05:54:16;;;;;;;3.42;3.15;;;;;;;21.56;21.64;101357.34;10533634;28;20046;-80
2022/03/13 05:59:17;;;;;;;0.13;0.10;;;;;;;20.61;22.24;101357.44;10516378;28;20483;-81
2022/03/13 06:04:20;;;;;;;0.25;0.25;;;;;;;20.29;22.42;101364.63;10533135;28;20050;-81
2022/03/13 06:09:22;;;;;;;0.25;0.25;;;;;;;20.22;22.86;101362.09;10533236;28;20082;-80
2022/03/13 06:14:24;;;;;;;0.85;0.85;;;;;;;20.57;22.65;101355.72;10498173;28;20076;-81
2022/03/13 06:19:26;;;;;;;1.85;1.35;;;;;;;21.20;22.84;101356.88;10533786;28;20128;-80
2022/03/13 06:24:29;;;;;;;0.00;0.00;;;;;;;20.92;22.11;101363.28;10524923;28;20503;-81
2022/03/13 06:29:31;;;;;;;0.30;0.30;;;;;;;20.72;22.41;101354.72;10515455;28;20446;-80
2022/03/13 06:34:33;;;;;;;0.00;0.00;;;;;;;20.72;22.61;101362.56;10532911;28;20475;-81
2022/03/13 06:39:38;;;;;;;1.17;1.08;;;;;;;20.09;22.96;101371.75;10533336;28;20086;-80
2022/03/13 06:44:40;;;;;;;11.55;5.40;;;;;;;18.96;23.49;101393.06;10514682;28;20532;-81
2022/03/13 06:49:43;;;;;;;0.45;0.45;;;;;;;19.56;22.87;101387.69;10523314;28;20135;-81
2022/03/13 06:54:45;;;;;;;1.30;0.60;;;;;;;20.08;22.54;101367.41;10523254;28;20105;-80
2022/03/13 06:59:47;;;;;;;1.55;1.45;;;;;;;22.78;19.88;101376.56;10522574;28;20127;-81
2022/03/13 07:04:49;;;;;;;3.35;2.60;;;;;;;19.68;23.17;101388.53;10532214;28;20124;-81
2022/03/13 07:09:52;;;;;;;9.82;7.57;;;;;;;21.47;20.90;101374.06;10535254;28;20040;-81
2022/03/13 07:14:56;;;;;;;0.32;0.32;;;;;;;21.53;20.21;101380.94;10538099;28;20119;-81
2022/03/13 07:19:58;;;;;;;0.38;0.38;;;;;;;23.16;19.59;101365.38;10530715;28;20059;-81
2022/03/13 07:25:00;;;;;;;0.10;0.10;;;;;;;22.82;20.03;101372.97;10539141;28;20590;-81
2022/03/13 07:30:01;;;;;;;0.00;0.00;;;;;;;22.19;20.63;101382.72;10539696;28;20048;-81
2022/03/13 07:35:03;;;;;;;1.20;1.10;;;;;;;21.68;20.82;101372.06;10536451;28;20482;-81
2022/03/13 07:40:05;;;;;;;0.88;0.82;;;;;;;22.39;20.30;101376.31;10539080;28;20126;-80
2022/03/13 07:45:07;;;;;;;4.03;2.03;;;;;;;20.82;21.25;101366.00;10562865;27;20043;-81
2022/03/13 07:50:10;;;;;;;0.30;0.30;;;;;;;22.63;19.90;101366.31;10520555;28;20119;-81
2022/03/13 07:55:14;;;;;;;0.47;0.35;;;;;;;22.81;19.66;101371.25;10538279;28;20076;-81
2022/03/13 08:00:17;;;;;;;0.10;0.10;;;;;;;24.26;18.25;101361.28;10537892;28;20047;-81
2022/03/13 08:05:23;;;;;;;6.63;3.20;;;;;;;22.04;19.43;101372.44;10511458;28;20437;-81
2022/03/13 08:10:28;;;;;;;0.45;0.35;;;;;;;24.27;17.89;101368.28;10538879;28;20665;-82
2022/03/13 08:15:30;;;;;;;8.60;4.65;;;;;;;22.32;19.23;101372.03;10537453;28;20075;-80
2022/03/13 08:20:32;;;;;;;1.25;1.15;;;;;;;23.10;18.19;101372.47;10538298;28;20044;-81
2022/03/13 08:25:34;;;;;;;11.95;5.45;;;;;;;21.39;19.33;101384.59;10535350;28;20050;-80
2022/03/13 08:30:36;;;;;;;1.08;0.52;;;;;;;23.29;18.18;101377.38;10558400;27;20050;-81
2022/03/13 08:35:37;;;;;;;3.10;1.88;;;;;;;23.43;17.50;101380.59;10524093;28;20098;-81
2022/03/13 08:40:39;;;;;;;0.55;0.52;;;;;;;22.64;18.22;101386.44;10540321;28;20050;-80
2022/03/13 08:45:40;;;;;;;0.95;0.52;;;;;;;22.50;18.17;101387.53;10537269;28;20127;-80
2022/03/13 08:50:42;;;;;;;2.45;1.15;;;;;;;22.80;18.21;101385.28;10532828;28;20158;-81
2022/03/13 08:55:43;;;;;;;0.20;0.20;;;;;;;22.70;18.29;101388.94;10556680;27;20040;-81
2022/03/13 09:00:45;;;;;;;13.55;2.90;;;;;;;22.79;18.59;101383.53;10535323;28;20469;-81
2022/03/13 09:05:48;;;;;;;1.10;1.00;;;;;;;22.82;18.52;101374.72;10531870;28;20047;-81
2022/03/13 09:10:50;;;;;;;0.43;0.35;;;;;;;23.84;17.76;101382.41;10532535;28;20105;-81
2022/03/13 09:15:51;;;;;;;0.68;0.68;;;;;;;22.28;19.25;101375.59;10515553;28;20051;-80
2022/03/13 09:20:53;;;;;;;11.55;4.05;;;;;;;22.98;18.34;101376.19;10531981;28;20069;-81
2022/03/13 09:25:55;;;;;;;2.70;0.95;;;;;;;22.86;18.85;101372.91;10514458;28;20055;-80
2022/03/13 09:30:58;;;;;;;0.40;0.22;;;;;;;23.40;18.37;101354.41;10530954;28;20547;-81
2022/03/13 09:35:59;;;;;;;0.60;0.60;;;;;;;23.02;19.33;101363.88;10514664;28;20040;-81
2022/03/13 09:41:01;;;;;;;7.35;4.00;;;;;;;21.91;19.06;101360.41;10532604;28;20089;-81
2022/03/13 09:46:03;;;;;;;5.57;2.50;;;;;;;23.88;17.89;101349.84;10532445;28;20130;-81
2022/03/13 09:51:06;;;;;;;0.90;0.80;;;;;;;23.74;17.95;101350.19;10508005;28;20036;-81
2022/03/13 09:56:08;;;;;;;1.92;0.82;;;;;;;23.82;18.17;101350.00;10529024;28;20048;-81
2022/03/13 10:01:10;;;;;;;0.52;0.30;;;;;;;22.72;18.50;101355.66;10526567;28;20439;-81
2022/03/13 10:06:13;;;;;;;0.93;0.85;;;;;;;23.80;18.42;101347.41;10541648;27;20102;-81
2022/03/13 10:11:15;;;;;;;0.88;0.60;;;;;;;24.23;18.17;101340.31;10537108;28;20518;-81
2022/03/13 10:16:36;;;;;;;1.05;0.73;;;;;;;25.38;17.53;101338.19;10507352;28;20059;-81
2022/03/13 10:21:38;;;;;;;9.52;4.28;;;;;;;25.56;17.53;101330.63;10518648;28;20040;-81
2022/03/13 10:26:40;;;;;;;1.88;1.30;;;;;;;25.61;16.47;101334.88;10525278;28;20035;-81
2022/03/13 10:31:56;;;;;;;1.25;1.02;;;;;;;25.84;16.91;101328.00;10524226;28;20516;-81
2022/03/13 10:37:01;;;;;;;4.05;1.10;;;;;;;26.63;16.23;101324.56;10540475;28;20035;-80
2022/03/13 10:42:03;;;;;;;3.17;1.80;;;;;;;26.60;16.27;101313.22;10539372;28;20036;-81
2022/03/13 10:47:08;;;;;;;5.57;1.48;;;;;;;28.29;15.62;101305.97;10541369;28;20568;-81
2022/03/13 10:52:31;;;;;;;0.88;0.75;;;;;;;28.25;15.29;101301.75;10527030;28;20161;-81
2022/03/13 10:57:50;;;;;;;1.33;1.15;;;;;;;29.08;15.76;101290.13;10542348;28;20046;-81
2022/03/13 11:02:52;;;;;;;2.00;1.45;;;;;;;27.48;16.39;101282.72;10542622;28;20131;-81
2022/03/13 11:07:56;;;;;;;2.58;1.35;;;;;;;29.10;15.94;101290.94;10562559;27;20040;-81
2022/03/13 11:12:57;;;;;;;0.95;0.88;;;;;;;29.85;15.34;101290.09;10531976;28;20068;-82
2022/03/13 11:17:59;;;;;;;0.20;0.20;;;;;;;31.28;14.89;101279.19;10540691;28;20044;-81
2022/03/13 11:23:01;;;;;;;4.47;2.22;;;;;;;29.41;15.46;101281.56;10539142;28;20115;-81
2022/03/13 11:28:03;;;;;;;4.15;3.72;;;;;;;28.96;16.24;101274.81;10544243;28;20039;-81
2022/03/13 11:33:07;;;;;;;0.85;0.82;;;;;;;29.91;15.90;101273.91;10539529;28;20418;-82
2022/03/13 11:38:18;;;;;;;8.05;3.78;;;;;;;30.07;15.75;101280.16;10519698;28;20051;-81
2022/03/13 11:43:22;;;;;;;1.20;1.10;;;;;;;29.80;15.67;101279.72;10537208;28;20056;-81
2022/03/13 11:48:36;;;;;;;0.75;0.47;;;;;;;30.67;15.46;101273.56;10518826;28;20097;-81
2022/03/13 11:53:39;;;;;;;6.35;3.13;;;;;;;28.97;16.12;101271.22;10519287;28;20113;-79
2022/03/13 11:58:53;;;;;;;5.55;4.10;;;;;;;30.25;15.91;101258.91;10536845;28;20054;-80
2022/03/13 12:04:00;;;;;;;2.15;1.02;;;;;;;29.90;15.87;101261.50;10537101;28;20131;-81
2022/03/13 12:09:27;;;;;;;14.15;8.90;;;;;;;26.83;18.85;101257.81;10518800;28;20077;-83
2022/03/13 12:14:59;;;;;;;6.95;3.60;;;;;;;29.85;16.61;101250.28;10530404;28;20040;-82
2022/03/13 12:20:02;;;;;;;9.05;5.93;;;;;;;28.43;17.89;101245.28;10529727;28;20631;-83
2022/03/13 12:25:04;;;;;;;12.48;6.85;;;;;;;27.73;19.39;101244.69;10513585;28;20040;-83
2022/03/13 12:30:06;;;;;;;12.27;7.72;;;;;;;28.72;17.69;101235.22;10518885;28;20127;-83
2022/03/13 12:35:08;;;;;;;10.70;6.70;;;;;;;28.13;18.31;101227.16;10516129;28;20044;-82
2022/03/13 12:40:10;;;;;;;1.42;1.02;;;;;;;29.91;16.77;101215.47;10554678;27;20058;-83
2022/03/13 12:45:15;;;;;;;9.65;5.55;;;;;;;28.01;18.11;101206.47;10514139;28;20056;-82
2022/03/13 12:50:19;;;;;;;3.22;1.85;;;;;;;30.27;16.12;101198.56;10529823;28;20075;-82
2022/03/13 12:55:26;;;;;;;0.20;0.20;;;;;;;30.88;16.16;101190.91;10515451;28;20048;-82
2022/03/13 13:00:35;;;;;;;2.50;1.35;;;;;;;30.15;16.79;101196.56;10532392;28;20539;-83
2022/03/13 13:05:37;;;;;;;8.45;5.55;;;;;;;27.30;19.11;101193.44;10532489;28;20475;-81
2022/03/13 13:10:38;;;;;;;6.15;2.78;;;;;;;28.76;18.06;101189.09;10529810;28;20074;-83
2022/03/13 13:15:40;;;;;;;3.20;2.78;;;;;;;30.16;16.35;101190.31;10526699;28;20040;-81
2022/03/13 13:20:42;;;;;;;4.05;1.45;;;;;;;30.19;17.05;101187.50;10527862;28;20052;-80
2022/03/13 13:25:50;;;;;;;8.07;4.53;;;;;;;28.34;18.89;101185.63;10528771;28;20043;-82
2022/03/13 13:30:54;;;;;;;0.32;0.20;;;;;;;30.63;16.36;101173.66;10512551;28;20426;-81
2022/03/13 13:35:56;;;;;;;13.50;5.50;;;;;;;28.15;19.43;101185.59;10523617;28;20093;-82
2022/03/13 13:40:57;;;;;;;8.82;4.40;;;;;;;29.44;18.05;101177.94;10528551;28;20406;-82
2022/03/13 13:46:07;;;;;;;5.95;3.63;;;;;;;28.15;18.65;101177.63;10527823;28;20032;-83
2022/03/13 13:51:27;;;;;;;10.52;5.43;;;;;;;27.88;19.06;101174.34;10530355;28;20040;-82
2022/03/13 13:56:31;;;;;;;5.03;2.88;;;;;;;28.38;18.42;101167.81;10522387;28;20048;-82
2022/03/13 14:01:34;;;;;;;1.50;1.40;;;;;;;29.83;17.18;101169.81;10525442;28;20052;-80
2022/03/13 14:06:40;;;;;;;12.43;6.43;;;;;;;28.72;18.36;101179.53;10511248;28;20054;-82
2022/03/13 14:11:42;;;;;;;10.38;6.32;;;;;;;27.42;19.20;101187.72;10528869;28;20047;-81
2022/03/13 14:16:44;;;;;;;6.07;3.90;;;;;;;28.21;18.83;101176.50;10517516;28;20074;-82
2022/03/13 14:21:56;;;;;;;2.92;0.85;;;;;;;30.53;16.79;101169.75;10538236;28;20056;-81
2022/03/13 14:26:58;;;;;;;11.02;4.88;;;;;;;28.34;18.14;101166.22;10528476;28;20123;-83
2022/03/13 14:32:00;;;;;;;11.48;4.68;;;;;;;28.53;18.62;101165.38;10529436;28;20133;-82
2022/03/13 14:37:02;;;;;;;9.85;5.85;;;;;;;27.69;18.21;101175.16;10513277;28;20372;-81
2022/03/13 14:42:04;;;;;;;7.97;4.45;;;;;;;27.99;18.06;101172.13;10514725;28;20497;-82
2022/03/13 14:47:07;;;;;;;1.75;1.00;;;;;;;29.40;16.54;101168.38;10525481;28;20406;-81
2022/03/13 14:52:09;;;;;;;6.32;2.83;;;;;;;28.94;17.62;101165.28;10527568;28;20525;-81
2022/03/13 14:57:10;;;;;;;9.35;4.15;;;;;;;29.07;17.20;101168.22;10528438;28;20521;-81
2022/03/13 15:02:12;;;;;;;7.95;3.33;;;;;;;28.61;17.67;101168.56;10527887;28;20131;-83
2022/03/13 15:07:18;;;;;;;9.65;4.47;;;;;;;27.47;18.86;101177.81;10509210;28;20468;-82
2022/03/13 15:12:21;;;;;;;7.28;2.45;;;;;;;27.67;18.60;101170.81;10537253;28;20072;-83
2022/03/13 15:17:22;;;;;;;2.40;1.63;;;;;;;29.22;17.16;101169.28;10531633;28;20517;-84
2022/03/13 15:22:25;;;;;;;1.15;0.80;;;;;;;29.71;17.43;101153.59;10534468;28;20044;-83
2022/03/13 15:27:33;;;;;;;6.00;3.65;;;;;;;27.85;18.44;101161.25;10521387;28;20157;-82
2022/03/13 15:32:34;;;;;;;6.63;3.78;;;;;;;27.39;19.00;101162.22;10532382;28;20044;-83
2022/03/13 15:37:38;;;;;;;1.25;0.70;;;;;;;29.01;17.74;101161.41;10502010;28;20477;-83
2022/03/13 15:42:40;;;;;;;4.50;2.35;;;;;;;29.35;16.98;101157.16;10531039;28;20043;-83
2022/03/13 15:47:41;;;;;;;4.68;2.42;;;;;;;29.27;16.92;101161.94;10533836;28;20085;-81
2022/03/13 15:52:43;;;;;;;6.28;3.67;;;;;;;27.40;19.11;101169.22;10529579;28;20570;-81
2022/03/13 15:57:46;;;;;;;3.72;2.38;;;;;;;29.42;17.54;101165.66;10536690;28;20486;-83
2022/03/13 16:02:47;;;;;;;0.10;0.10;;;;;;;31.09;16.33;101161.44;10539851;28;20127;-83
2022/03/13 16:07:49;;;;;;;2.40;1.30;;;;;;;29.87;17.02;101168.72;10535621;28;20107;-83
2022/03/13 16:12:51;;;;;;;4.60;1.50;;;;;;;30.42;16.92;101161.50;10499628;28;20083;-82
2022/03/13 16:17:53;;;;;;;6.90;4.38;;;;;;;28.97;17.73;101167.78;10533052;28;20130;-82
2022/03/13 16:22:55;;;;;;;3.72;2.15;;;;;;;31.10;15.51;101157.78;10534893;28;20048;-83
2022/03/13 16:27:59;;;;;;;2.20;1.95;;;;;;;30.47;16.44;101157.63;10534278;28;20044;-82
2022/03/13 16:33:01;;;;;;;2.28;2.10;;;;;;;30.63;16.37;101168.34;10514840;28;20544;-83
2022/03/13 16:38:03;;;;;;;0.55;0.32;;;;;;;31.96;15.02;101168.78;10529956;28;20502;-83
2022/03/13 16:43:09;;;;;;;0.55;0.55;;;;;;;32.51;14.55;101174.34;10533329;28;20055;-82
2022/03/13 16:48:10;;;;;;;0.45;0.45;;;;;;;32.24;14.84;101174.28;10517576;28;20132;-82
2022/03/13 16:53:12;;;;;;;0.10;0.10;;;;;;;30.59;15.88;101179.22;10516407;28;20067;-83
2022/03/13 16:58:14;;;;;;;0.38;0.38;;;;;;;31.42;15.37;101176.38;10513988;28;20414;-83
2022/03/13 17:03:15;;;;;;;0.08;0.08;;;;;;;31.54;15.03;101183.66;10528276;28;20082;-83
2022/03/13 17:08:17;;;;;;;0.00;0.00;;;;;;;31.69;15.47;101192.59;10512637;28;20040;-83
2022/03/13 17:13:19;;;;;;;0.20;0.20;;;;;;;32.32;15.07;101181.78;10530990;28;20490;-82
2022/03/13 17:18:21;;;;;;;0.00;0.00;;;;;;;30.95;16.50;101184.28;10533814;28;20054;-82
2022/03/13 17:23:23;;;;;;;0.00;0.00;;;;;;;31.96;15.32;101192.75;10500713;28;20048;-83
2022/03/13 17:28:25;;;;;;;0.00;0.00;;;;;;;31.90;15.25;101190.47;10532248;28;20127;-83
2022/03/13 17:33:27;;;;;;;0.00;0.00;;;;;;;30.68;15.73;101200.84;10535261;28;20047;-79
2022/03/13 17:38:28;;;;;;;0.00;0.00;;;;;;;31.37;15.59;101202.44;10548611;27;20542;-78
2022/03/13 17:44:20;;;;;;;0.00;0.00;;;;;;;31.43;15.28;101196.75;10535427;28;20044;-79
2022/03/13 17:49:21;;;;;;;0.00;0.00;;;;;;;30.11;16.41;101210.94;10538540;28;20135;-78
2022/03/13 17:54:23;;;;;;;0.25;0.25;;;;;;;30.83;15.91;101208.91;10529992;28;20072;-78
2022/03/13 17:59:25;;;;;;;0.00;0.00;;;;;;;30.45;16.11;101214.47;10539003;28;20040;-78
2022/03/13 18:04:26;;;;;;;0.00;0.00;;;;;;;29.81;16.48;101222.16;10495623;28;20079;-79
2022/03/13 18:09:29;;;;;;;0.10;0.10;;;;;;;29.50;16.33;101234.28;10531948;28;20130;-78
2022/03/13 18:14:30;;;;;;;0.00;0.00;;;;;;;29.47;16.58;101237.09;10511567;28;20040;-79
2022/03/13 18:19:33;;;;;;;0.00;0.00;;;;;;;29.32;16.70;101239.56;10525195;28;20051;-78
2022/03/13 18:24:35;;;;;;;0.00;0.00;;;;;;;29.15;17.14;101240.31;10537343;28;20086;-78
2022/03/13 18:29:37;;;;;;;0.00;0.00;;;;;;;29.37;17.15;101242.88;10537390;28;20040;-79
2022/03/13 18:34:40;;;;;;;0.00;0.00;;;;;;;29.28;16.83;101253.88;10537888;28;20078;-78
2022/03/13 18:39:42;;;;;;;0.52;0.52;;;;;;;29.35;17.21;101260.66;10520670;28;20047;-78
2022/03/13 18:44:44;;;;;;;0.00;0.00;;;;;;;29.78;16.95;101264.78;10545637;28;20078;-78
2022/03/13 18:49:46;;;;;;;0.00;0.00;;;;;;;30.15;16.32;101271.81;10562728;28;20388;-78
2022/03/13 18:54:48;;;;;;;0.00;0.00;;;;;;;30.02;16.45;101276.88;10543027;28;20044;-78
2022/03/13 18:59:50;;;;;;;0.05;0.05;;;;;;;29.41;17.12;101278.91;10526426;28;20048;-78
2022/03/13 19:04:51;;;;;;;0.63;0.63;;;;;;;27.76;18.52;101286.91;10530306;28;20055;-78
2022/03/13 19:09:53;;;;;;;0.00;0.00;;;;;;;28.80;18.08;101280.78;10558652;28;20559;-79
2022/03/13 19:14:58;;;;;;;0.00;0.00;;;;;;;27.82;18.72;101291.94;10523973;28;20537;-78
2022/03/13 19:20:01;;;;;;;2.88;2.00;;;;;;;26.33;20.01;101306.22;10557399;28;20048;-79
2022/03/13 19:25:06;;;;;;;1.05;0.98;;;;;;;26.94;18.97;101300.59;10535691;28;20048;-78
2022/03/13 19:30:09;;;;;;;2.92;1.63;;;;;;;26.15;19.80;101319.16;10536330;28;20048;-79
2022/03/13 19:35:12;;;;;;;1.85;1.30;;;;;;;26.45;20.09;101326.94;10544371;28;20040;-79
2022/03/13 19:40:17;;;;;;;3.47;2.38;;;;;;;25.87;20.34;101327.94;10545493;28;20465;-78
2022/03/13 19:45:18;;;;;;;4.65;2.40;;;;;;;26.65;20.22;101328.03;10547346;28;20028;-78
2022/03/13 19:50:20;;;;;;;1.52;1.15;;;;;;;26.40;19.93;101336.78;10545470;28;20052;-78
2022/03/13 19:55:22;;;;;;;5.32;2.80;;;;;;;26.17;21.00;101340.22;10544340;28;20218;-79
2022/03/13 20:00:24;;;;;;;8.13;3.72;;;;;;;25.20;21.59;101352.75;10526179;28;20062;-78
2022/03/13 20:05:27;;;;;;;4.95;2.63;;;;;;;24.84;21.58;101374.78;10543728;28;20041;-78
2022/03/13 20:10:29;;;;;;;6.90;3.38;;;;;;;24.60;22.71;101385.91;10558694;27;20079;-78
2022/03/13 20:15:31;;;;;;;5.80;3.25;;;;;;;23.76;23.77;101391.34;10520269;28;20043;-77
2022/03/13 20:20:32;;;;;;;7.10;4.95;;;;;;;24.27;23.39;101389.34;10537577;28;20083;-78
2022/03/13 20:25:44;;;;;;;6.13;2.80;;;;;;;24.96;22.97;101399.06;10530362;28;20396;-78
2022/03/13 20:30:46;;;;;;;7.53;4.63;;;;;;;24.18;23.08;101410.63;10527763;28;20040;-78
2022/03/13 20:35:48;;;;;;;10.43;4.97;;;;;;;23.20;25.13;101414.38;10536497;28;20036;-78
2022/03/13 20:41:20;;;;;;;9.75;4.28;;;;;;;23.85;24.47;101413.09;10527434;28;20027;-77
2022/03/13 20:46:23;;;;;;;4.60;2.60;;;;;;;24.55;24.08;101415.00;10519667;28;20475;-78
2022/03/13 20:51:25;;;;;;;4.55;2.40;;;;;;;24.19;24.94;101422.88;10529376;28;20052;-77
2022/03/13 20:56:27;;;;;;;6.63;2.20;;;;;;;24.28;25.83;101427.94;10537771;28;20036;-78
2022/03/13 21:01:28;;;;;;;5.15;0.82;;;;;;;25.16;24.49;101427.53;10536830;28;20044;-77
2022/03/13 21:06:33;;;;;;;1.10;0.57;;;;;;;24.88;24.30;101444.09;10519581;28;20437;-78
2022/03/13 21:11:40;;;;;;;1.15;0.82;;;;;;;24.84;25.23;101463.50;10521289;28;20075;-78
2022/03/13 21:16:47;;;;;;;4.47;0.50;;;;;;;23.23;27.39;101477.41;10520302;28;20426;-76
2022/03/13 21:21:52;;;;;;;0.43;0.43;;;;;;;24.44;26.09;101480.25;10547049;28;20076;-76
2022/03/13 21:26:54;;;;;;;2.63;0.80;;;;;;;23.41;26.84;101492.84;10535798;28;20552;-76
2022/03/13 21:31:56;;;;;;;1.27;0.60;;;;;;;23.52;27.18;101497.91;10528388;28;20314;-77
2022/03/13 21:36:58;;;;;;;1.45;0.80;;;;;;;25.03;25.46;101485.88;10535942;28;20040;-76
2022/03/13 21:42:00;;;;;;;1.75;0.30;;;;;;;24.20;26.17;101495.69;10534552;28;20051;-77
2022/03/13 21:47:03;;;;;;;1.42;0.82;;;;;;;23.59;27.05;101501.28;10525795;28;20184;-77
2022/03/13 21:52:06;;;;;;;1.45;0.73;;;;;;;23.31;27.63;101501.78;10531074;28;20126;-76
2022/03/13 21:57:10;;;;;;;1.85;0.50;;;;;;;24.59;26.14;101506.25;10532845;28;20035;-77
2022/03/13 22:02:14;;;;;;;3.03;0.95;;;;;;;23.14;27.88;101516.06;10530479;28;20554;-77
2022/03/13 22:07:18;;;;;;;1.17;0.65;;;;;;;23.28;27.25;101522.88;10533149;28;20062;-77
2022/03/13 22:12:32;;;;;;;1.35;0.90;;;;;;;22.80;28.17;101537.63;10531911;28;20047;-77
2022/03/13 22:17:36;;;;;;;2.75;0.75;;;;;;;24.21;26.99;101550.09;10505590;28;20056;-77
2022/03/13 22:22:38;;;;;;;1.63;1.02;;;;;;;23.67;26.92;101557.25;10533290;28;20079;-77
2022/03/13 22:27:40;;;;;;;2.55;1.10;;;;;;;24.02;27.07;101558.34;10504544;28;20755;-77
2022/03/13 22:32:41;;;;;;;1.25;0.85;;;;;;;24.01;27.05;101561.91;10520555;28;20584;-76
2022/03/13 22:37:43;;;;;;;2.53;1.08;;;;;;;24.01;27.38;101555.75;10531935;28;20050;-77
2022/03/13 22:42:45;;;;;;;0.55;0.28;;;;;;;24.47;26.09;101539.00;10517373;28;20044;-77
2022/03/13 22:47:49;;;;;;;1.02;0.80;;;;;;;25.87;24.47;101544.34;10522552;28;20053;-78
2022/03/13 22:52:50;;;;;;;2.33;0.40;;;;;;;25.30;25.48;101551.97;10519365;28;20077;-77
2022/03/13 22:57:55;;;;;;;1.27;0.55;;;;;;;25.21;26.10;101556.63;10534256;28;20518;-77
2022/03/13 23:02:57;;;;;;;2.03;0.95;;;;;;;24.47;26.58;101564.44;10533850;28;20039;-77
2022/03/13 23:08:01;;;;;;;2.03;0.77;;;;;;;25.14;25.53;101561.16;10509438;28;20570;-78
2022/03/13 23:13:03;;;;;;;1.65;0.65;;;;;;;24.98;25.92;101581.78;10530296;28;20040;-77